createdAt,value
2022-09-05T00:15:14.641Z,822.23492
2022-09-05T00:31:45.630Z,1560.56824
2022-09-05T00:46:54.676Z,1777.51367
2022-09-05T01:01:57.089Z,1329.23975
2022-09-05T01:16:59.530Z,842.61096
2022-09-05T01:32:01.842Z,672.41077
2022-09-05T01:47:04.219Z,541.7641
2022-09-05T02:02:08.926Z,322.42157
2022-09-05T02:17:27.323Z,121.05791
2022-09-05T02:32:51.640Z,26.36905
2022-09-05T02:47:54.191Z,3.59578
2022-09-05T03:02:56.465Z,0
2022-09-05T03:18:19.936Z,0
2022-09-05T03:33:23.544Z,0
2022-09-05T03:48:53.918Z,0
2022-09-05T04:08:13.520Z,0
2022-09-05T04:23:35.022Z,0
2022-09-05T04:38:37.252Z,0
2022-09-05T04:53:39.410Z,0
2022-09-05T05:08:41.761Z,0
2022-09-05T05:23:44.037Z,0
2022-09-05T05:38:46.392Z,0
2022-09-05T05:53:51.767Z,0
2022-09-05T06:12:40.105Z,0
2022-09-05T06:30:05.751Z,0
2022-09-05T06:45:27.867Z,0
2022-09-05T07:00:31.200Z,0
2022-09-05T07:15:33.491Z,0
2022-09-05T07:30:35.841Z,0
2022-09-05T07:45:38.129Z,0
2022-09-05T08:00:44.939Z,0
2022-09-05T08:16:13.301Z,0
2022-09-05T08:31:16.442Z,0
2022-09-05T08:46:46.800Z,0
2022-09-05T09:02:37.408Z,0
2022-09-05T09:17:50.548Z,0
2022-09-05T09:32:56.318Z,0
2022-09-05T09:48:01.078Z,0
2022-09-05T10:06:20.099Z,0
2022-09-05T10:26:01.809Z,0
2022-09-05T10:41:20.059Z,0
2022-09-05T10:56:26.093Z,0
2022-09-05T11:11:35.226Z,0
2022-09-05T11:26:37.652Z,0
2022-09-05T11:41:39.981Z,0
2022-09-05T11:56:45.889Z,0
2022-09-05T12:11:48.433Z,0
2022-09-05T12:27:38.513Z,0
2022-09-05T12:42:54.784Z,1.19859
2022-09-05T13:02:57.934Z,11.98593
2022-09-05T13:18:13.116Z,91.09308
2022-09-05T13:38:05.336Z,212.15099
2022-09-05T13:53:28.945Z,431.49353
2022-09-05T14:08:38.276Z,976.85339
2022-09-05T14:23:40.635Z,2418.76099
2022-09-05T14:38:43.020Z,3237.40015
2022-09-05T14:54:01.420Z,2134.69434
2022-09-05T15:11:24.047Z,23467.25586
2022-09-05T15:27:22.143Z,24207.98633
2022-09-05T15:42:24.632Z,3584.99219
2022-09-05T15:57:27.226Z,3237.40015
2022-09-05T16:12:30.137Z,3495.09766
2022-09-05T16:27:32.934Z,3619.75122
2022-09-05T16:42:46.402Z,2850.25439
2022-09-05T16:57:50.023Z,2183.83667
2022-09-05T17:12:53.676Z,3785.15723
2022-09-05T17:29:24.241Z,3773.17114
2022-09-05T17:44:40.082Z,3810.32764
2022-09-05T17:59:44.630Z,3920.59814
2022-09-05T18:14:50.112Z,1663.64734
2022-09-05T18:29:57.975Z,3771.97266
2022-09-05T18:45:01.816Z,1867.40808
2022-09-05T19:00:04.225Z,1718.78259
2022-09-05T19:15:06.886Z,4072.81958
2022-09-05T19:36:44.679Z,4047.64893
2022-09-05T19:52:21.217Z,4074.01807
2022-09-05T20:07:23.564Z,4593.00879
2022-09-05T20:22:48.606Z,4329.31836
2022-09-05T20:43:19.663Z,3940.97437
2022-09-05T20:58:37.186Z,3948.16577
2022-09-05T21:13:51.978Z,2696.83447
2022-09-05T21:28:55.521Z,3698.8584
2022-09-05T21:47:33.879Z,3533.45264
2022-09-05T22:02:48.317Z,3756.39087
2022-09-05T22:17:50.771Z,4640.95264
2022-09-05T22:32:52.997Z,5470.37891
2022-09-05T22:47:55.199Z,5953.41211
2022-09-05T23:02:57.697Z,6141.59131
2022-09-05T23:17:59.910Z,6142.79004
2022-09-05T23:33:02.076Z,6135.59814
2022-09-05T23:48:04.237Z,4883.06836
